NR25 weather

Vidant Multispecialty Clinic Heliport
Belhaven, North Carolina, United States

Public forecast

Using degrees Fahrenheit for public forecast. Weather courtesy of forecast.io.

METAR (pilot weather report)

Closest report is Warren Field, 20.8 nm (38.6 km) W. Retrieved 2019/04/21 12:40 UTC (0 seconds ago):

KOCW 211240Z AUTO 22003KT 10SM CLR 14/07 A3002 RMK AO2 T01360073

TAF (pilot weather forecast)

Closest forecast is Coastal Carolina Regional Airport, 35.3 nm (65.3 km) SW. Retrieved 2019/04/21 12:40 UTC (0 seconds ago):

TAF KEWN 211137Z 2112/2212 23006KT P6SM SCT070 FM211900 28005KT P6SM BKN050 FM220300 32004KT P6SM SKC